sensor_id;sensor_type;location;lat;lon;timestamp;P1;durP1;ratioP1;P2;durP2;ratioP2
49460;SDS011;35355;49.198;-0.368;2022-12-18T00:01:56;38.83;;;16.10;;
49460;SDS011;35355;49.198;-0.368;2022-12-18T00:04:23;39.65;;;16.27;;
49460;SDS011;35355;49.198;-0.368;2022-12-18T00:06:50;40.72;;;17.08;;
49460;SDS011;35355;49.198;-0.368;2022-12-18T00:09:16;36.42;;;15.40;;
49460;SDS011;35355;49.198;-0.368;2022-12-18T00:11:41;40.05;;;16.10;;
49460;SDS011;35355;49.198;-0.368;2022-12-18T00:14:08;40.63;;;16.85;;
49460;SDS011;35355;49.198;-0.368;2022-12-18T00:16:35;44.22;;;17.13;;
49460;SDS011;35355;49.198;-0.368;2022-12-18T00:19:02;36.35;;;15.80;;
49460;SDS011;35355;49.198;-0.368;2022-12-18T00:21:29;38.00;;;16.13;;
49460;SDS011;35355;49.198;-0.368;2022-12-18T00:23:56;38.65;;;17.02;;
49460;SDS011;35355;49.198;-0.368;2022-12-18T00:26:24;40.30;;;15.10;;
49460;SDS011;35355;49.198;-0.368;2022-12-18T00:28:51;32.47;;;15.77;;
49460;SDS011;35355;49.198;-0.368;2022-12-18T00:31:18;35.35;;;15.70;;
49460;SDS011;35355;49.198;-0.368;2022-12-18T00:33:45;32.92;;;14.68;;
49460;SDS011;35355;49.198;-0.368;2022-12-18T00:36:12;38.30;;;17.15;;
49460;SDS011;35355;49.198;-0.368;2022-12-18T00:38:39;41.20;;;16.05;;
49460;SDS011;35355;49.198;-0.368;2022-12-18T00:41:05;36.05;;;14.43;;
49460;SDS011;35355;49.198;-0.368;2022-12-18T00:43:31;40.80;;;16.27;;
49460;SDS011;35355;49.198;-0.368;2022-12-18T00:45:57;36.72;;;14.63;;
49460;SDS011;35355;49.198;-0.368;2022-12-18T00:48:22;32.55;;;14.52;;
49460;SDS011;35355;49.198;-0.368;2022-12-18T00:50:48;28.77;;;13.70;;
49460;SDS011;35355;49.198;-0.368;2022-12-18T00:53:14;35.15;;;14.32;;
49460;SDS011;35355;49.198;-0.368;2022-12-18T00:55:40;28.58;;;12.82;;
49460;SDS011;35355;49.198;-0.368;2022-12-18T00:58:06;33.83;;;14.35;;
49460;SDS011;35355;49.198;-0.368;2022-12-18T01:00:32;30.42;;;13.43;;
49460;SDS011;35355;49.198;-0.368;2022-12-18T01:02:57;33.35;;;14.00;;
49460;SDS011;35355;49.198;-0.368;2022-12-18T01:05:23;32.05;;;13.55;;
49460;SDS011;35355;49.198;-0.368;2022-12-18T01:07:48;31.10;;;13.05;;
49460;SDS011;35355;49.198;-0.368;2022-12-18T01:10:14;26.13;;;12.07;;
49460;SDS011;35355;49.198;-0.368;2022-12-18T01:12:39;28.95;;;12.07;;
49460;SDS011;35355;49.198;-0.368;2022-12-18T01:15:05;30.25;;;12.45;;
49460;SDS011;35355;49.198;-0.368;2022-12-18T01:17:32;26.25;;;11.98;;
49460;SDS011;35355;49.198;-0.368;2022-12-18T01:19:58;25.50;;;11.85;;
49460;SDS011;35355;49.198;-0.368;2022-12-18T01:22:23;23.48;;;11.10;;
49460;SDS011;35355;49.198;-0.368;2022-12-18T01:24:48;27.95;;;12.57;;
49460;SDS011;35355;49.198;-0.368;2022-12-18T01:27:14;27.95;;;11.35;;
49460;SDS011;35355;49.198;-0.368;2022-12-18T01:29:39;27.02;;;12.40;;
49460;SDS011;35355;49.198;-0.368;2022-12-18T01:32:05;26.27;;;11.77;;
49460;SDS011;35355;49.198;-0.368;2022-12-18T01:34:30;30.45;;;12.73;;
49460;SDS011;35355;49.198;-0.368;2022-12-18T01:36:55;26.95;;;11.98;;
49460;SDS011;35355;49.198;-0.368;2022-12-18T01:39:21;29.98;;;12.55;;
49460;SDS011;35355;49.198;-0.368;2022-12-18T01:41:46;31.67;;;12.52;;
49460;SDS011;35355;49.198;-0.368;2022-12-18T01:47:13;29.60;;;13.70;;
49460;SDS011;35355;49.198;-0.368;2022-12-18T01:49:43;26.60;;;12.20;;
49460;SDS011;35355;49.198;-0.368;2022-12-18T01:52:08;27.23;;;10.98;;
49460;SDS011;35355;49.198;-0.368;2022-12-18T01:54:34;26.75;;;11.65;;
49460;SDS011;35355;49.198;-0.368;2022-12-18T01:56:59;30.30;;;12.68;;
49460;SDS011;35355;49.198;-0.368;2022-12-18T01:59:26;29.52;;;12.65;;
49460;SDS011;35355;49.198;-0.368;2022-12-18T02:01:53;27.10;;;12.63;;
49460;SDS011;35355;49.198;-0.368;2022-12-18T02:04:26;27.35;;;10.98;;
49460;SDS011;35355;49.198;-0.368;2022-12-18T02:09:48;25.52;;;10.88;;
49460;SDS011;35355;49.198;-0.368;2022-12-18T02:12:23;27.88;;;13.07;;
49460;SDS011;35355;49.198;-0.368;2022-12-18T02:14:55;27.05;;;12.20;;
49460;SDS011;35355;49.198;-0.368;2022-12-18T02:17:35;27.40;;;11.27;;
49460;SDS011;35355;49.198;-0.368;2022-12-18T02:20:08;30.23;;;12.93;;
49460;SDS011;35355;49.198;-0.368;2022-12-18T02:28:07;27.15;;;10.93;;
49460;SDS011;35355;49.198;-0.368;2022-12-18T02:30:38;24.45;;;11.65;;
49460;SDS011;35355;49.198;-0.368;2022-12-18T02:33:06;33.45;;;13.55;;
49460;SDS011;35355;49.198;-0.368;2022-12-18T02:35:34;29.27;;;12.07;;
49460;SDS011;35355;49.198;-0.368;2022-12-18T02:38:01;25.17;;;11.07;;
49460;SDS011;35355;49.198;-0.368;2022-12-18T02:40:28;25.92;;;11.68;;
49460;SDS011;35355;49.198;-0.368;2022-12-18T02:42:55;28.92;;;13.25;;
49460;SDS011;35355;49.198;-0.368;2022-12-18T02:45:20;24.17;;;11.23;;
49460;SDS011;35355;49.198;-0.368;2022-12-18T02:47:46;29.95;;;11.65;;
49460;SDS011;35355;49.198;-0.368;2022-12-18T02:50:30;26.17;;;11.40;;
49460;SDS011;35355;49.198;-0.368;2022-12-18T02:53:09;25.65;;;11.55;;
49460;SDS011;35355;49.198;-0.368;2022-12-18T02:58:34;26.88;;;12.38;;
49460;SDS011;35355;49.198;-0.368;2022-12-18T03:01:19;28.25;;;12.10;;
49460;SDS011;35355;49.198;-0.368;2022-12-18T03:03:59;28.30;;;12.18;;
49460;SDS011;35355;49.198;-0.368;2022-12-18T03:06:33;30.45;;;12.23;;
49460;SDS011;35355;49.198;-0.368;2022-12-18T03:09:06;27.10;;;12.43;;
49460;SDS011;35355;49.198;-0.368;2022-12-18T03:11:40;28.63;;;11.63;;
49460;SDS011;35355;49.198;-0.368;2022-12-18T03:14:28;32.28;;;12.75;;
49460;SDS011;35355;49.198;-0.368;2022-12-18T03:16:59;24.98;;;10.77;;
49460;SDS011;35355;49.198;-0.368;2022-12-18T03:19:28;26.98;;;11.57;;
49460;SDS011;35355;49.198;-0.368;2022-12-18T03:21:57;29.25;;;12.63;;
49460;SDS011;35355;49.198;-0.368;2022-12-18T03:24:25;26.38;;;11.63;;
49460;SDS011;35355;49.198;-0.368;2022-12-18T03:26:55;23.17;;;11.40;;
49460;SDS011;35355;49.198;-0.368;2022-12-18T03:32:10;30.88;;;12.10;;
49460;SDS011;35355;49.198;-0.368;2022-12-18T03:34:40;31.52;;;11.75;;
49460;SDS011;35355;49.198;-0.368;2022-12-18T03:37:07;29.88;;;12.32;;
49460;SDS011;35355;49.198;-0.368;2022-12-18T03:39:33;25.77;;;12.10;;
49460;SDS011;35355;49.198;-0.368;2022-12-18T03:47:18;27.45;;;12.23;;
49460;SDS011;35355;49.198;-0.368;2022-12-18T03:52:31;30.15;;;12.30;;
49460;SDS011;35355;49.198;-0.368;2022-12-18T03:55:17;27.23;;;11.93;;
49460;SDS011;35355;49.198;-0.368;2022-12-18T03:57:44;29.42;;;11.68;;
49460;SDS011;35355;49.198;-0.368;2022-12-18T04:00:13;30.20;;;11.35;;
49460;SDS011;35355;49.198;-0.368;2022-12-18T04:02:47;26.73;;;11.52;;
49460;SDS011;35355;49.198;-0.368;2022-12-18T04:05:16;29.38;;;12.20;;
49460;SDS011;35355;49.198;-0.368;2022-12-18T04:07:43;26.52;;;12.23;;
49460;SDS011;35355;49.198;-0.368;2022-12-18T04:10:11;29.67;;;11.88;;
49460;SDS011;35355;49.198;-0.368;2022-12-18T04:12:38;29.55;;;12.50;;
49460;SDS011;35355;49.198;-0.368;2022-12-18T04:15:04;33.80;;;13.23;;
49460;SDS011;35355;49.198;-0.368;2022-12-18T04:17:30;28.65;;;13.10;;
49460;SDS011;35355;49.198;-0.368;2022-12-18T04:19:55;28.13;;;11.93;;
49460;SDS011;35355;49.198;-0.368;2022-12-18T04:22:21;24.52;;;11.15;;
49460;SDS011;35355;49.198;-0.368;2022-12-18T04:24:46;29.00;;;12.20;;
49460;SDS011;35355;49.198;-0.368;2022-12-18T04:27:11;32.25;;;12.50;;
49460;SDS011;35355;49.198;-0.368;2022-12-18T04:29:37;31.92;;;12.90;;
49460;SDS011;35355;49.198;-0.368;2022-12-18T04:32:02;24.73;;;11.23;;
49460;SDS011;35355;49.198;-0.368;2022-12-18T04:34:28;27.25;;;11.02;;
49460;SDS011;35355;49.198;-0.368;2022-12-18T04:36:53;26.63;;;11.55;;
49460;SDS011;35355;49.198;-0.368;2022-12-18T04:39:19;29.05;;;12.07;;
49460;SDS011;35355;49.198;-0.368;2022-12-18T04:41:44;27.75;;;12.13;;
49460;SDS011;35355;49.198;-0.368;2022-12-18T04:44:09;26.80;;;11.93;;
49460;SDS011;35355;49.198;-0.368;2022-12-18T04:46:35;31.98;;;12.85;;
49460;SDS011;35355;49.198;-0.368;2022-12-18T04:49:00;31.58;;;13.35;;
49460;SDS011;35355;49.198;-0.368;2022-12-18T04:51:26;29.10;;;11.27;;
49460;SDS011;35355;49.198;-0.368;2022-12-18T04:53:51;27.75;;;11.98;;
49460;SDS011;35355;49.198;-0.368;2022-12-18T04:56:17;28.35;;;13.05;;
49460;SDS011;35355;49.198;-0.368;2022-12-18T04:58:44;30.35;;;12.68;;
49460;SDS011;35355;49.198;-0.368;2022-12-18T05:01:09;33.38;;;13.52;;
49460;SDS011;35355;49.198;-0.368;2022-12-18T05:03:36;28.45;;;11.50;;
49460;SDS011;35355;49.198;-0.368;2022-12-18T05:06:03;26.98;;;11.43;;
49460;SDS011;35355;49.198;-0.368;2022-12-18T05:08:29;29.65;;;13.13;;
49460;SDS011;35355;49.198;-0.368;2022-12-18T05:10:59;31.15;;;12.98;;
49460;SDS011;35355;49.198;-0.368;2022-12-18T05:13:29;29.10;;;12.32;;
49460;SDS011;35355;49.198;-0.368;2022-12-18T05:15:55;29.10;;;12.35;;
49460;SDS011;35355;49.198;-0.368;2022-12-18T05:18:21;33.67;;;12.55;;
49460;SDS011;35355;49.198;-0.368;2022-12-18T05:39:35;31.00;;;11.93;;
49460;SDS011;35355;49.198;-0.368;2022-12-18T05:42:00;28.52;;;11.77;;
49460;SDS011;35355;49.198;-0.368;2022-12-18T05:44:26;32.72;;;12.32;;
49460;SDS011;35355;49.198;-0.368;2022-12-18T05:46:51;29.83;;;12.23;;
49460;SDS011;35355;49.198;-0.368;2022-12-18T05:49:16;32.28;;;12.65;;
49460;SDS011;35355;49.198;-0.368;2022-12-18T05:51:42;33.42;;;13.57;;
49460;SDS011;35355;49.198;-0.368;2022-12-18T05:54:07;30.08;;;12.70;;
49460;SDS011;35355;49.198;-0.368;2022-12-18T05:56:32;33.35;;;12.48;;
49460;SDS011;35355;49.198;-0.368;2022-12-18T05:58:58;26.15;;;11.45;;
49460;SDS011;35355;49.198;-0.368;2022-12-18T06:01:24;33.63;;;13.70;;
49460;SDS011;35355;49.198;-0.368;2022-12-18T06:03:51;29.55;;;13.00;;
49460;SDS011;35355;49.198;-0.368;2022-12-18T06:06:17;29.52;;;11.40;;
49460;SDS011;35355;49.198;-0.368;2022-12-18T06:08:50;29.83;;;12.25;;
49460;SDS011;35355;49.198;-0.368;2022-12-18T06:11:17;28.90;;;11.25;;
49460;SDS011;35355;49.198;-0.368;2022-12-18T06:13:52;26.83;;;11.73;;
49460;SDS011;35355;49.198;-0.368;2022-12-18T06:16:19;27.90;;;11.85;;
49460;SDS011;35355;49.198;-0.368;2022-12-18T06:18:44;28.70;;;12.18;;
49460;SDS011;35355;49.198;-0.368;2022-12-18T06:21:10;28.38;;;11.95;;
49460;SDS011;35355;49.198;-0.368;2022-12-18T06:23:35;29.25;;;12.10;;
49460;SDS011;35355;49.198;-0.368;2022-12-18T06:26:07;28.27;;;11.40;;
49460;SDS011;35355;49.198;-0.368;2022-12-18T06:28:34;26.80;;;11.68;;
49460;SDS011;35355;49.198;-0.368;2022-12-18T06:31:00;32.97;;;12.23;;
49460;SDS011;35355;49.198;-0.368;2022-12-18T06:33:28;27.88;;;12.13;;
49460;SDS011;35355;49.198;-0.368;2022-12-18T06:35:54;26.70;;;11.38;;
49460;SDS011;35355;49.198;-0.368;2022-12-18T06:38:24;27.50;;;12.48;;
49460;SDS011;35355;49.198;-0.368;2022-12-18T06:40:49;34.72;;;13.07;;
49460;SDS011;35355;49.198;-0.368;2022-12-18T06:43:15;29.20;;;12.32;;
49460;SDS011;35355;49.198;-0.368;2022-12-18T06:45:40;30.65;;;11.98;;
49460;SDS011;35355;49.198;-0.368;2022-12-18T06:48:05;32.95;;;13.45;;
49460;SDS011;35355;49.198;-0.368;2022-12-18T06:50:31;27.33;;;12.43;;
49460;SDS011;35355;49.198;-0.368;2022-12-18T06:52:56;27.38;;;11.50;;
49460;SDS011;35355;49.198;-0.368;2022-12-18T06:55:21;34.65;;;12.70;;
49460;SDS011;35355;49.198;-0.368;2022-12-18T06:57:47;29.02;;;12.45;;
49460;SDS011;35355;49.198;-0.368;2022-12-18T07:00:12;29.48;;;11.45;;
49460;SDS011;35355;49.198;-0.368;2022-12-18T07:02:38;32.38;;;13.05;;
49460;SDS011;35355;49.198;-0.368;2022-12-18T07:05:04;25.58;;;11.82;;
49460;SDS011;35355;49.198;-0.368;2022-12-18T07:07:30;29.40;;;12.25;;
49460;SDS011;35355;49.198;-0.368;2022-12-18T07:09:55;27.88;;;12.07;;
49460;SDS011;35355;49.198;-0.368;2022-12-18T07:12:20;27.42;;;11.98;;
49460;SDS011;35355;49.198;-0.368;2022-12-18T07:14:46;26.10;;;11.13;;
49460;SDS011;35355;49.198;-0.368;2022-12-18T07:17:11;30.83;;;12.55;;
49460;SDS011;35355;49.198;-0.368;2022-12-18T07:19:36;30.77;;;12.23;;
49460;SDS011;35355;49.198;-0.368;2022-12-18T07:22:02;26.60;;;12.13;;
49460;SDS011;35355;49.198;-0.368;2022-12-18T07:24:27;27.08;;;11.68;;
49460;SDS011;35355;49.198;-0.368;2022-12-18T07:26:53;25.33;;;11.35;;
49460;SDS011;35355;49.198;-0.368;2022-12-18T07:29:18;28.85;;;12.07;;
49460;SDS011;35355;49.198;-0.368;2022-12-18T07:31:44;27.52;;;12.60;;
49460;SDS011;35355;49.198;-0.368;2022-12-18T07:34:10;30.88;;;13.35;;
49460;SDS011;35355;49.198;-0.368;2022-12-18T07:36:36;32.95;;;11.95;;
49460;SDS011;35355;49.198;-0.368;2022-12-18T07:39:02;24.42;;;12.25;;
49460;SDS011;35355;49.198;-0.368;2022-12-18T07:41:27;30.00;;;12.57;;
49460;SDS011;35355;49.198;-0.368;2022-12-18T07:43:52;26.38;;;11.30;;
49460;SDS011;35355;49.198;-0.368;2022-12-18T07:46:18;27.30;;;11.25;;
49460;SDS011;35355;49.198;-0.368;2022-12-18T07:48:43;28.75;;;12.25;;
49460;SDS011;35355;49.198;-0.368;2022-12-18T07:51:10;30.25;;;11.38;;
49460;SDS011;35355;49.198;-0.368;2022-12-18T07:53:37;32.42;;;12.77;;
49460;SDS011;35355;49.198;-0.368;2022-12-18T07:56:04;23.98;;;10.95;;
49460;SDS011;35355;49.198;-0.368;2022-12-18T07:58:32;31.27;;;13.27;;
49460;SDS011;35355;49.198;-0.368;2022-12-18T08:01:08;25.50;;;11.50;;
49460;SDS011;35355;49.198;-0.368;2022-12-18T08:03:35;26.60;;;12.00;;
49460;SDS011;35355;49.198;-0.368;2022-12-18T08:06:02;29.13;;;12.10;;
49460;SDS011;35355;49.198;-0.368;2022-12-18T08:08:29;31.58;;;12.70;;
49460;SDS011;35355;49.198;-0.368;2022-12-18T08:10:55;28.27;;;12.30;;
49460;SDS011;35355;49.198;-0.368;2022-12-18T08:13:20;26.48;;;11.68;;
49460;SDS011;35355;49.198;-0.368;2022-12-18T08:15:46;30.95;;;12.48;;
49460;SDS011;35355;49.198;-0.368;2022-12-18T08:18:11;27.17;;;10.80;;
49460;SDS011;35355;49.198;-0.368;2022-12-18T08:20:37;28.55;;;12.10;;
49460;SDS011;35355;49.198;-0.368;2022-12-18T08:23:02;32.80;;;13.40;;
49460;SDS011;35355;49.198;-0.368;2022-12-18T08:25:27;27.65;;;12.20;;
49460;SDS011;35355;49.198;-0.368;2022-12-18T08:27:53;33.17;;;12.75;;
49460;SDS011;35355;49.198;-0.368;2022-12-18T08:30:18;28.35;;;12.40;;
49460;SDS011;35355;49.198;-0.368;2022-12-18T08:32:44;30.05;;;14.65;;
49460;SDS011;35355;49.198;-0.368;2022-12-18T08:35:09;29.42;;;13.15;;
49460;SDS011;35355;49.198;-0.368;2022-12-18T08:37:36;34.60;;;13.77;;
49460;SDS011;35355;49.198;-0.368;2022-12-18T08:40:02;33.85;;;13.95;;
49460;SDS011;35355;49.198;-0.368;2022-12-18T08:42:27;32.75;;;11.32;;
49460;SDS011;35355;49.198;-0.368;2022-12-18T08:45:11;28.98;;;12.18;;
49460;SDS011;35355;49.198;-0.368;2022-12-18T08:47:36;30.75;;;12.77;;
49460;SDS011;35355;49.198;-0.368;2022-12-18T08:50:02;30.25;;;12.18;;
49460;SDS011;35355;49.198;-0.368;2022-12-18T08:52:27;31.15;;;13.05;;
49460;SDS011;35355;49.198;-0.368;2022-12-18T08:54:53;33.72;;;13.00;;
49460;SDS011;35355;49.198;-0.368;2022-12-18T08:57:18;30.27;;;12.15;;
49460;SDS011;35355;49.198;-0.368;2022-12-18T08:59:44;32.10;;;12.55;;
49460;SDS011;35355;49.198;-0.368;2022-12-18T09:02:10;30.00;;;12.13;;
49460;SDS011;35355;49.198;-0.368;2022-12-18T09:04:36;32.22;;;12.85;;
49460;SDS011;35355;49.198;-0.368;2022-12-18T09:07:01;28.52;;;12.13;;
49460;SDS011;35355;49.198;-0.368;2022-12-18T09:09:27;25.40;;;11.18;;
49460;SDS011;35355;49.198;-0.368;2022-12-18T09:11:52;26.38;;;11.52;;
49460;SDS011;35355;49.198;-0.368;2022-12-18T09:14:17;29.35;;;12.05;;
49460;SDS011;35355;49.198;-0.368;2022-12-18T09:16:43;29.90;;;13.50;;
49460;SDS011;35355;49.198;-0.368;2022-12-18T09:19:08;28.33;;;12.52;;
49460;SDS011;35355;49.198;-0.368;2022-12-18T09:21:35;28.67;;;11.35;;
49460;SDS011;35355;49.198;-0.368;2022-12-18T09:24:00;26.52;;;11.02;;
49460;SDS011;35355;49.198;-0.368;2022-12-18T09:26:26;23.77;;;10.68;;
49460;SDS011;35355;49.198;-0.368;2022-12-18T09:28:52;27.25;;;11.27;;
49460;SDS011;35355;49.198;-0.368;2022-12-18T09:31:18;29.08;;;11.30;;
49460;SDS011;35355;49.198;-0.368;2022-12-18T09:33:45;26.08;;;10.50;;
49460;SDS011;35355;49.198;-0.368;2022-12-18T09:36:12;29.80;;;12.55;;
49460;SDS011;35355;49.198;-0.368;2022-12-18T09:38:39;27.40;;;11.93;;
49460;SDS011;35355;49.198;-0.368;2022-12-18T09:44:12;25.60;;;11.57;;
49460;SDS011;35355;49.198;-0.368;2022-12-18T09:46:50;28.92;;;11.45;;
49460;SDS011;35355;49.198;-0.368;2022-12-18T09:49:28;26.88;;;11.95;;
49460;SDS011;35355;49.198;-0.368;2022-12-18T09:51:57;28.45;;;11.60;;
49460;SDS011;35355;49.198;-0.368;2022-12-18T09:54:34;27.27;;;11.27;;
49460;SDS011;35355;49.198;-0.368;2022-12-18T09:59:38;23.92;;;9.35;;
49460;SDS011;35355;49.198;-0.368;2022-12-18T10:02:13;26.40;;;10.27;;
49460;SDS011;35355;49.198;-0.368;2022-12-18T10:04:42;27.90;;;11.00;;
49460;SDS011;35355;49.198;-0.368;2022-12-18T10:07:11;20.95;;;9.73;;
49460;SDS011;35355;49.198;-0.368;2022-12-18T10:09:55;36.30;;;13.52;;
49460;SDS011;35355;49.198;-0.368;2022-12-18T10:12:34;114.15;;;24.67;;
49460;SDS011;35355;49.198;-0.368;2022-12-18T10:15:16;34.58;;;11.60;;
49460;SDS011;35355;49.198;-0.368;2022-12-18T10:18:02;78.03;;;19.23;;
49460;SDS011;35355;49.198;-0.368;2022-12-18T10:20:54;236.65;;;39.33;;
49460;SDS011;35355;49.198;-0.368;2022-12-18T10:25:53;68.70;;;17.13;;
49460;SDS011;35355;49.198;-0.368;2022-12-18T10:28:30;983.65;;;148.75;;
49460;SDS011;35355;49.198;-0.368;2022-12-18T10:30:57;63.70;;;18.67;;
49460;SDS011;35355;49.198;-0.368;2022-12-18T10:33:24;60.42;;;15.95;;
49460;SDS011;35355;49.198;-0.368;2022-12-18T10:35:56;164.25;;;34.95;;
49460;SDS011;35355;49.198;-0.368;2022-12-18T10:38:29;72.20;;;17.55;;
49460;SDS011;35355;49.198;-0.368;2022-12-18T10:40:58;186.32;;;32.53;;
49460;SDS011;35355;49.198;-0.368;2022-12-18T10:43:31;69.82;;;17.23;;
49460;SDS011;35355;49.198;-0.368;2022-12-18T10:53:54;33.92;;;12.20;;
49460;SDS011;35355;49.198;-0.368;2022-12-18T10:56:33;43.00;;;15.02;;
49460;SDS011;35355;49.198;-0.368;2022-12-18T10:59:04;34.30;;;12.75;;
49460;SDS011;35355;49.198;-0.368;2022-12-18T11:01:51;34.92;;;13.70;;
49460;SDS011;35355;49.198;-0.368;2022-12-18T11:04:37;31.77;;;12.07;;
49460;SDS011;35355;49.198;-0.368;2022-12-18T11:07:14;26.15;;;11.80;;
49460;SDS011;35355;49.198;-0.368;2022-12-18T11:09:39;28.80;;;12.30;;
49460;SDS011;35355;49.198;-0.368;2022-12-18T11:12:15;27.70;;;11.23;;
49460;SDS011;35355;49.198;-0.368;2022-12-18T11:14:43;24.15;;;10.88;;
49460;SDS011;35355;49.198;-0.368;2022-12-18T11:17:19;27.83;;;11.52;;
49460;SDS011;35355;49.198;-0.368;2022-12-18T11:20:19;24.10;;;9.77;;
49460;SDS011;35355;49.198;-0.368;2022-12-18T11:22:59;30.15;;;10.85;;
49460;SDS011;35355;49.198;-0.368;2022-12-18T11:25:27;26.05;;;10.00;;
49460;SDS011;35355;49.198;-0.368;2022-12-18T11:30:25;22.10;;;10.60;;
49460;SDS011;35355;49.198;-0.368;2022-12-18T11:33:06;25.60;;;10.00;;
49460;SDS011;35355;49.198;-0.368;2022-12-18T11:38:32;24.17;;;10.25;;
49460;SDS011;35355;49.198;-0.368;2022-12-18T11:44:35;21.67;;;10.15;;
49460;SDS011;35355;49.198;-0.368;2022-12-18T11:50:02;21.98;;;9.65;;
49460;SDS011;35355;49.198;-0.368;2022-12-18T11:52:38;20.52;;;9.98;;
49460;SDS011;35355;49.198;-0.368;2022-12-18T11:55:28;21.42;;;9.82;;
49460;SDS011;35355;49.198;-0.368;2022-12-18T12:00:39;16.45;;;8.30;;
49460;SDS011;35355;49.198;-0.368;2022-12-18T12:16:13;15.05;;;7.45;;
49460;SDS011;35355;49.198;-0.368;2022-12-18T12:29:57;24.20;;;9.75;;
49460;SDS011;35355;49.198;-0.368;2022-12-18T12:32:48;21.13;;;9.55;;
49460;SDS011;35355;49.198;-0.368;2022-12-18T12:38:05;25.88;;;11.23;;
49460;SDS011;35355;49.198;-0.368;2022-12-18T12:40:47;25.60;;;11.73;;
49460;SDS011;35355;49.198;-0.368;2022-12-18T12:43:55;23.70;;;10.95;;
49460;SDS011;35355;49.198;-0.368;2022-12-18T12:46:23;28.98;;;11.73;;
49460;SDS011;35355;49.198;-0.368;2022-12-18T12:49:03;23.17;;;11.40;;
49460;SDS011;35355;49.198;-0.368;2022-12-18T12:51:35;23.77;;;11.15;;
49460;SDS011;35355;49.198;-0.368;2022-12-18T12:54:02;33.47;;;12.65;;
49460;SDS011;35355;49.198;-0.368;2022-12-18T12:56:36;27.35;;;12.98;;
49460;SDS011;35355;49.198;-0.368;2022-12-18T12:59:15;25.23;;;11.45;;
49460;SDS011;35355;49.198;-0.368;2022-12-18T13:04:51;27.25;;;13.38;;
49460;SDS011;35355;49.198;-0.368;2022-12-18T13:07:41;30.25;;;12.93;;
49460;SDS011;35355;49.198;-0.368;2022-12-18T13:13:09;35.08;;;14.23;;
49460;SDS011;35355;49.198;-0.368;2022-12-18T13:18:29;29.10;;;11.55;;
49460;SDS011;35355;49.198;-0.368;2022-12-18T13:25:48;32.85;;;13.30;;
49460;SDS011;35355;49.198;-0.368;2022-12-18T13:28:21;230.50;;;43.22;;
49460;SDS011;35355;49.198;-0.368;2022-12-18T13:31:03;171.50;;;29.17;;
49460;SDS011;35355;49.198;-0.368;2022-12-18T13:36:01;340.90;;;53.53;;
49460;SDS011;35355;49.198;-0.368;2022-12-18T13:38:39;757.67;;;106.70;;
49460;SDS011;35355;49.198;-0.368;2022-12-18T13:43:46;1398.93;;;182.80;;
49460;SDS011;35355;49.198;-0.368;2022-12-18T13:46:17;264.90;;;43.80;;
49460;SDS011;35355;49.198;-0.368;2022-12-18T13:48:49;154.43;;;26.45;;
49460;SDS011;35355;49.198;-0.368;2022-12-18T13:51:17;1658.13;;;217.38;;
49460;SDS011;35355;49.198;-0.368;2022-12-18T14:10:29;1999.90;;;353.50;;
49460;SDS011;35355;49.198;-0.368;2022-12-18T14:12:55;1063.95;;;140.90;;
49460;SDS011;35355;49.198;-0.368;2022-12-18T14:15:34;1859.75;;;232.20;;
49460;SDS011;35355;49.198;-0.368;2022-12-18T14:21:06;958.08;;;127.05;;
49460;SDS011;35355;49.198;-0.368;2022-12-18T14:23:42;1198.72;;;152.55;;
49460;SDS011;35355;49.198;-0.368;2022-12-18T14:26:21;529.92;;;74.90;;
49460;SDS011;35355;49.198;-0.368;2022-12-18T14:28:53;631.67;;;87.38;;
49460;SDS011;35355;49.198;-0.368;2022-12-18T14:31:24;1999.90;;;350.80;;
49460;SDS011;35355;49.198;-0.368;2022-12-18T14:33:51;1999.90;;;306.08;;
49460;SDS011;35355;49.198;-0.368;2022-12-18T14:36:19;580.63;;;74.35;;
49460;SDS011;35355;49.198;-0.368;2022-12-18T14:38:55;1722.03;;;221.20;;
49460;SDS011;35355;49.198;-0.368;2022-12-18T14:41:22;1105.53;;;137.40;;
49460;SDS011;35355;49.198;-0.368;2022-12-18T14:43:50;93.80;;;22.42;;
49460;SDS011;35355;49.198;-0.368;2022-12-18T14:48:58;257.40;;;41.45;;
49460;SDS011;35355;49.198;-0.368;2022-12-18T14:51:25;157.60;;;28.65;;
49460;SDS011;35355;49.198;-0.368;2022-12-18T14:56:34;298.98;;;49.55;;
49460;SDS011;35355;49.198;-0.368;2022-12-18T14:59:06;70.35;;;20.10;;
49460;SDS011;35355;49.198;-0.368;2022-12-18T15:04:26;102.35;;;25.10;;
49460;SDS011;35355;49.198;-0.368;2022-12-18T15:09:43;57.05;;;18.38;;
49460;SDS011;35355;49.198;-0.368;2022-12-18T15:12:19;105.00;;;25.92;;
49460;SDS011;35355;49.198;-0.368;2022-12-18T15:14:51;83.35;;;23.25;;
49460;SDS011;35355;49.198;-0.368;2022-12-18T15:17:17;47.80;;;17.45;;
49460;SDS011;35355;49.198;-0.368;2022-12-18T15:19:45;46.40;;;18.27;;
49460;SDS011;35355;49.198;-0.368;2022-12-18T15:24:43;41.85;;;17.77;;
49460;SDS011;35355;49.198;-0.368;2022-12-18T15:29:59;47.20;;;16.05;;
49460;SDS011;35355;49.198;-0.368;2022-12-18T15:32:41;39.63;;;14.90;;
49460;SDS011;35355;49.198;-0.368;2022-12-18T15:37:35;37.47;;;15.38;;
49460;SDS011;35355;49.198;-0.368;2022-12-18T15:40:01;44.67;;;15.88;;
49460;SDS011;35355;49.198;-0.368;2022-12-18T15:42:28;35.72;;;15.13;;
49460;SDS011;35355;49.198;-0.368;2022-12-18T15:45:12;32.78;;;14.43;;
49460;SDS011;35355;49.198;-0.368;2022-12-18T15:47:38;41.70;;;15.23;;
49460;SDS011;35355;49.198;-0.368;2022-12-18T15:50:04;32.88;;;14.05;;
49460;SDS011;35355;49.198;-0.368;2022-12-18T15:52:31;32.55;;;14.23;;
49460;SDS011;35355;49.198;-0.368;2022-12-18T15:55:05;39.28;;;15.88;;
49460;SDS011;35355;49.198;-0.368;2022-12-18T15:57:53;38.10;;;15.35;;
49460;SDS011;35355;49.198;-0.368;2022-12-18T16:00:19;31.48;;;14.55;;
49460;SDS011;35355;49.198;-0.368;2022-12-18T16:02:44;33.53;;;15.30;;
49460;SDS011;35355;49.198;-0.368;2022-12-18T16:05:13;36.00;;;14.93;;
49460;SDS011;35355;49.198;-0.368;2022-12-18T16:07:40;29.48;;;13.88;;
49460;SDS011;35355;49.198;-0.368;2022-12-18T16:10:05;27.20;;;12.57;;
49460;SDS011;35355;49.198;-0.368;2022-12-18T16:12:31;28.10;;;13.32;;
49460;SDS011;35355;49.198;-0.368;2022-12-18T16:14:56;28.85;;;13.77;;
49460;SDS011;35355;49.198;-0.368;2022-12-18T16:17:22;27.92;;;13.20;;
49460;SDS011;35355;49.198;-0.368;2022-12-18T16:19:47;25.15;;;11.02;;
49460;SDS011;35355;49.198;-0.368;2022-12-18T16:22:20;30.67;;;12.73;;
49460;SDS011;35355;49.198;-0.368;2022-12-18T16:24:48;23.60;;;11.48;;
49460;SDS011;35355;49.198;-0.368;2022-12-18T16:27:15;19.73;;;9.75;;
49460;SDS011;35355;49.198;-0.368;2022-12-18T16:29:40;22.77;;;8.95;;
49460;SDS011;35355;49.198;-0.368;2022-12-18T16:32:05;16.92;;;8.63;;
49460;SDS011;35355;49.198;-0.368;2022-12-18T16:34:32;19.33;;;8.15;;
49460;SDS011;35355;49.198;-0.368;2022-12-18T16:37:06;16.25;;;8.05;;
49460;SDS011;35355;49.198;-0.368;2022-12-18T16:39:32;17.52;;;8.07;;
49460;SDS011;35355;49.198;-0.368;2022-12-18T16:41:59;15.57;;;7.53;;
49460;SDS011;35355;49.198;-0.368;2022-12-18T16:44:25;17.73;;;8.40;;
49460;SDS011;35355;49.198;-0.368;2022-12-18T16:46:51;20.45;;;9.05;;
49460;SDS011;35355;49.198;-0.368;2022-12-18T16:49:17;15.70;;;8.23;;
49460;SDS011;35355;49.198;-0.368;2022-12-18T16:51:43;22.02;;;8.57;;
49460;SDS011;35355;49.198;-0.368;2022-12-18T16:54:10;22.23;;;8.50;;
49460;SDS011;35355;49.198;-0.368;2022-12-18T16:56:36;17.15;;;7.63;;
49460;SDS011;35355;49.198;-0.368;2022-12-18T16:59:02;18.60;;;8.85;;